sensor_id;sensor_type;location;lat;lon;timestamp;P1;durP1;ratioP1;P2;durP2;ratioP2
38615;SDS011;24370;51.986;4.666;2024-02-21T00:00:34;5.63;;;1.00;;
38615;SDS011;24370;51.986;4.666;2024-02-21T00:02:59;6.53;;;1.83;;
38615;SDS011;24370;51.986;4.666;2024-02-21T00:05:27;11.97;;;2.03;;
38615;SDS011;24370;51.986;4.666;2024-02-21T00:07:52;3.23;;;1.10;;
38615;SDS011;24370;51.986;4.666;2024-02-21T00:10:18;13.37;;;1.20;;
38615;SDS011;24370;51.986;4.666;2024-02-21T00:12:43;7.60;;;1.50;;
38615;SDS011;24370;51.986;4.666;2024-02-21T00:15:08;10.83;;;1.60;;
38615;SDS011;24370;51.986;4.666;2024-02-21T00:17:34;12.13;;;1.50;;
38615;SDS011;24370;51.986;4.666;2024-02-21T00:19:59;13.07;;;1.80;;
38615;SDS011;24370;51.986;4.666;2024-02-21T00:22:25;10.67;;;1.90;;
38615;SDS011;24370;51.986;4.666;2024-02-21T00:24:53;11.77;;;2.83;;
38615;SDS011;24370;51.986;4.666;2024-02-21T00:27:19;7.70;;;1.93;;
38615;SDS011;24370;51.986;4.666;2024-02-21T00:29:44;12.20;;;2.73;;
38615;SDS011;24370;51.986;4.666;2024-02-21T00:32:10;5.93;;;1.93;;
38615;SDS011;24370;51.986;4.666;2024-02-21T00:34:35;8.43;;;1.80;;
38615;SDS011;24370;51.986;4.666;2024-02-21T00:37:01;9.87;;;1.73;;
38615;SDS011;24370;51.986;4.666;2024-02-21T00:39:26;8.10;;;2.43;;
38615;SDS011;24370;51.986;4.666;2024-02-21T00:41:51;13.30;;;2.97;;
38615;SDS011;24370;51.986;4.666;2024-02-21T00:44:17;14.37;;;2.90;;
38615;SDS011;24370;51.986;4.666;2024-02-21T00:46:42;6.40;;;1.80;;
38615;SDS011;24370;51.986;4.666;2024-02-21T00:49:07;8.20;;;2.07;;
38615;SDS011;24370;51.986;4.666;2024-02-21T00:51:33;10.43;;;2.53;;
38615;SDS011;24370;51.986;4.666;2024-02-21T00:53:58;9.03;;;2.00;;
38615;SDS011;24370;51.986;4.666;2024-02-21T00:56:24;14.00;;;3.47;;
38615;SDS011;24370;51.986;4.666;2024-02-21T00:58:49;9.67;;;2.83;;
38615;SDS011;24370;51.986;4.666;2024-02-21T01:01:20;11.17;;;2.37;;
38615;SDS011;24370;51.986;4.666;2024-02-21T01:03:47;7.83;;;2.10;;
38615;SDS011;24370;51.986;4.666;2024-02-21T01:06:13;11.70;;;2.70;;
38615;SDS011;24370;51.986;4.666;2024-02-21T01:08:38;8.17;;;2.53;;
38615;SDS011;24370;51.986;4.666;2024-02-21T01:11:04;13.03;;;2.50;;
38615;SDS011;24370;51.986;4.666;2024-02-21T01:13:29;8.73;;;2.43;;
38615;SDS011;24370;51.986;4.666;2024-02-21T01:15:54;6.83;;;1.87;;
38615;SDS011;24370;51.986;4.666;2024-02-21T01:18:20;6.00;;;2.43;;
38615;SDS011;24370;51.986;4.666;2024-02-21T01:20:45;7.60;;;3.23;;
38615;SDS011;24370;51.986;4.666;2024-02-21T01:23:10;8.77;;;2.20;;
38615;SDS011;24370;51.986;4.666;2024-02-21T01:25:36;5.23;;;1.87;;
38615;SDS011;24370;51.986;4.666;2024-02-21T01:28:01;7.80;;;1.77;;
38615;SDS011;24370;51.986;4.666;2024-02-21T01:30:26;28.13;;;2.63;;
38615;SDS011;24370;51.986;4.666;2024-02-21T01:32:52;11.10;;;2.53;;
38615;SDS011;24370;51.986;4.666;2024-02-21T01:35:17;10.10;;;2.30;;
38615;SDS011;24370;51.986;4.666;2024-02-21T01:37:43;6.57;;;1.93;;
38615;SDS011;24370;51.986;4.666;2024-02-21T01:40:08;2.97;;;1.53;;
38615;SDS011;24370;51.986;4.666;2024-02-21T01:42:37;11.33;;;2.10;;
38615;SDS011;24370;51.986;4.666;2024-02-21T01:45:04;11.33;;;2.20;;
38615;SDS011;24370;51.986;4.666;2024-02-21T01:47:30;11.83;;;2.10;;
38615;SDS011;24370;51.986;4.666;2024-02-21T01:49:56;5.10;;;1.80;;
38615;SDS011;24370;51.986;4.666;2024-02-21T01:52:21;6.93;;;2.03;;
38615;SDS011;24370;51.986;4.666;2024-02-21T01:54:47;8.13;;;2.50;;
38615;SDS011;24370;51.986;4.666;2024-02-21T01:57:13;7.40;;;2.47;;
38615;SDS011;24370;51.986;4.666;2024-02-21T01:59:39;10.07;;;2.20;;
38615;SDS011;24370;51.986;4.666;2024-02-21T02:02:05;7.70;;;2.50;;
38615;SDS011;24370;51.986;4.666;2024-02-21T02:04:31;9.57;;;2.10;;
38615;SDS011;24370;51.986;4.666;2024-02-21T02:06:57;5.60;;;2.40;;
38615;SDS011;24370;51.986;4.666;2024-02-21T02:09:27;5.17;;;2.20;;
38615;SDS011;24370;51.986;4.666;2024-02-21T02:11:54;10.53;;;2.47;;
38615;SDS011;24370;51.986;4.666;2024-02-21T02:14:19;10.43;;;2.73;;
38615;SDS011;24370;51.986;4.666;2024-02-21T02:16:48;9.17;;;2.47;;
38615;SDS011;24370;51.986;4.666;2024-02-21T02:19:13;12.80;;;2.87;;
38615;SDS011;24370;51.986;4.666;2024-02-21T02:21:41;9.73;;;3.13;;
38615;SDS011;24370;51.986;4.666;2024-02-21T02:24:10;10.80;;;2.30;;
38615;SDS011;24370;51.986;4.666;2024-02-21T02:26:39;4.83;;;2.40;;
38615;SDS011;24370;51.986;4.666;2024-02-21T02:29:04;15.47;;;2.93;;
38615;SDS011;24370;51.986;4.666;2024-02-21T02:31:30;6.37;;;2.57;;
38615;SDS011;24370;51.986;4.666;2024-02-21T02:33:55;10.73;;;2.60;;
38615;SDS011;24370;51.986;4.666;2024-02-21T02:36:21;13.20;;;4.10;;
38615;SDS011;24370;51.986;4.666;2024-02-21T02:38:46;7.17;;;2.53;;
38615;SDS011;24370;51.986;4.666;2024-02-21T02:41:11;10.13;;;2.70;;
38615;SDS011;24370;51.986;4.666;2024-02-21T02:43:37;14.13;;;3.60;;
38615;SDS011;24370;51.986;4.666;2024-02-21T02:46:02;8.93;;;2.70;;
38615;SDS011;24370;51.986;4.666;2024-02-21T02:48:28;12.83;;;3.30;;
38615;SDS011;24370;51.986;4.666;2024-02-21T02:50:54;9.47;;;2.93;;
38615;SDS011;24370;51.986;4.666;2024-02-21T02:53:20;9.10;;;2.80;;
38615;SDS011;24370;51.986;4.666;2024-02-21T02:55:45;14.33;;;2.90;;
38615;SDS011;24370;51.986;4.666;2024-02-21T02:58:11;17.13;;;3.60;;
38615;SDS011;24370;51.986;4.666;2024-02-21T03:00:36;8.57;;;3.23;;
38615;SDS011;24370;51.986;4.666;2024-02-21T03:03:01;12.23;;;3.13;;
38615;SDS011;24370;51.986;4.666;2024-02-21T03:05:30;9.17;;;3.10;;
38615;SDS011;24370;51.986;4.666;2024-02-21T03:07:55;10.10;;;3.60;;
38615;SDS011;24370;51.986;4.666;2024-02-21T03:10:21;9.80;;;3.73;;
38615;SDS011;24370;51.986;4.666;2024-02-21T03:12:46;8.17;;;2.80;;
38615;SDS011;24370;51.986;4.666;2024-02-21T03:15:12;16.80;;;3.27;;
38615;SDS011;24370;51.986;4.666;2024-02-21T03:17:39;7.30;;;2.60;;
38615;SDS011;24370;51.986;4.666;2024-02-21T03:20:05;6.33;;;2.90;;
38615;SDS011;24370;51.986;4.666;2024-02-21T03:22:34;6.73;;;2.70;;
38615;SDS011;24370;51.986;4.666;2024-02-21T03:24:59;4.27;;;2.67;;
38615;SDS011;24370;51.986;4.666;2024-02-21T03:27:25;6.30;;;2.57;;
38615;SDS011;24370;51.986;4.666;2024-02-21T03:29:50;12.27;;;2.50;;
38615;SDS011;24370;51.986;4.666;2024-02-21T03:32:15;9.30;;;2.60;;
38615;SDS011;24370;51.986;4.666;2024-02-21T03:34:41;9.67;;;3.20;;
38615;SDS011;24370;51.986;4.666;2024-02-21T03:37:06;7.47;;;2.90;;
38615;SDS011;24370;51.986;4.666;2024-02-21T03:39:32;11.07;;;2.93;;
38615;SDS011;24370;51.986;4.666;2024-02-21T03:41:58;13.90;;;3.97;;
38615;SDS011;24370;51.986;4.666;2024-02-21T03:44:26;7.93;;;2.77;;
38615;SDS011;24370;51.986;4.666;2024-02-21T03:46:52;9.33;;;2.90;;
38615;SDS011;24370;51.986;4.666;2024-02-21T03:49:17;10.63;;;3.30;;
38615;SDS011;24370;51.986;4.666;2024-02-21T03:51:43;5.00;;;2.63;;
38615;SDS011;24370;51.986;4.666;2024-02-21T03:54:08;8.17;;;2.73;;
38615;SDS011;24370;51.986;4.666;2024-02-21T03:56:36;8.93;;;3.00;;
38615;SDS011;24370;51.986;4.666;2024-02-21T03:59:02;6.23;;;3.60;;
38615;SDS011;24370;51.986;4.666;2024-02-21T04:01:31;6.57;;;2.70;;
38615;SDS011;24370;51.986;4.666;2024-02-21T04:03:56;7.27;;;2.80;;
38615;SDS011;24370;51.986;4.666;2024-02-21T04:06:21;5.93;;;3.10;;
38615;SDS011;24370;51.986;4.666;2024-02-21T04:08:47;9.07;;;2.77;;
38615;SDS011;24370;51.986;4.666;2024-02-21T04:11:12;8.70;;;3.23;;
38615;SDS011;24370;51.986;4.666;2024-02-21T04:13:38;7.00;;;3.17;;
38615;SDS011;24370;51.986;4.666;2024-02-21T04:16:03;14.63;;;2.67;;
38615;SDS011;24370;51.986;4.666;2024-02-21T04:18:30;8.27;;;3.30;;
38615;SDS011;24370;51.986;4.666;2024-02-21T04:20:56;7.10;;;3.37;;
38615;SDS011;24370;51.986;4.666;2024-02-21T04:23:21;6.80;;;2.87;;
38615;SDS011;24370;51.986;4.666;2024-02-21T04:25:46;11.53;;;3.57;;
38615;SDS011;24370;51.986;4.666;2024-02-21T04:28:12;9.10;;;3.37;;
38615;SDS011;24370;51.986;4.666;2024-02-21T04:30:37;7.50;;;3.07;;
38615;SDS011;24370;51.986;4.666;2024-02-21T04:33:02;10.47;;;2.90;;
38615;SDS011;24370;51.986;4.666;2024-02-21T04:35:32;7.77;;;2.57;;
38615;SDS011;24370;51.986;4.666;2024-02-21T04:37:57;6.97;;;3.90;;
38615;SDS011;24370;51.986;4.666;2024-02-21T04:40:22;5.17;;;2.90;;
38615;SDS011;24370;51.986;4.666;2024-02-21T04:42:47;9.37;;;3.60;;
38615;SDS011;24370;51.986;4.666;2024-02-21T04:45:13;6.37;;;3.43;;
38615;SDS011;24370;51.986;4.666;2024-02-21T04:47:38;10.47;;;3.17;;
38615;SDS011;24370;51.986;4.666;2024-02-21T04:50:04;7.27;;;3.23;;
38615;SDS011;24370;51.986;4.666;2024-02-21T04:52:29;11.10;;;3.90;;
38615;SDS011;24370;51.986;4.666;2024-02-21T04:54:55;7.50;;;4.00;;
38615;SDS011;24370;51.986;4.666;2024-02-21T04:57:21;7.87;;;4.13;;
38615;SDS011;24370;51.986;4.666;2024-02-21T04:59:46;8.17;;;3.57;;
38615;SDS011;24370;51.986;4.666;2024-02-21T05:02:14;9.10;;;3.60;;
38615;SDS011;24370;51.986;4.666;2024-02-21T05:04:40;6.57;;;3.97;;
38615;SDS011;24370;51.986;4.666;2024-02-21T05:07:06;5.23;;;3.20;;
38615;SDS011;24370;51.986;4.666;2024-02-21T05:09:32;5.70;;;2.73;;
38615;SDS011;24370;51.986;4.666;2024-02-21T05:11:57;8.97;;;3.73;;
38615;SDS011;24370;51.986;4.666;2024-02-21T05:14:26;8.67;;;3.00;;
38615;SDS011;24370;51.986;4.666;2024-02-21T05:16:54;6.47;;;3.23;;
38615;SDS011;24370;51.986;4.666;2024-02-21T05:19:20;8.80;;;4.03;;
38615;SDS011;24370;51.986;4.666;2024-02-21T05:21:45;7.73;;;3.93;;
38615;SDS011;24370;51.986;4.666;2024-02-21T05:24:10;6.83;;;3.33;;
38615;SDS011;24370;51.986;4.666;2024-02-21T05:26:36;6.50;;;3.67;;
38615;SDS011;24370;51.986;4.666;2024-02-21T05:29:01;11.73;;;4.70;;
38615;SDS011;24370;51.986;4.666;2024-02-21T05:31:29;9.27;;;5.00;;
38615;SDS011;24370;51.986;4.666;2024-02-21T05:34:19;8.27;;;4.55;;
38615;SDS011;24370;51.986;4.666;2024-02-21T05:36:45;8.47;;;4.90;;
38615;SDS011;24370;51.986;4.666;2024-02-21T05:39:11;13.43;;;4.93;;
38615;SDS011;24370;51.986;4.666;2024-02-21T05:41:37;8.83;;;4.77;;
38615;SDS011;24370;51.986;4.666;2024-02-21T05:44:02;10.20;;;5.77;;
38615;SDS011;24370;51.986;4.666;2024-02-21T05:46:31;12.90;;;5.47;;
38615;SDS011;24370;51.986;4.666;2024-02-21T05:48:56;14.57;;;5.70;;
38615;SDS011;24370;51.986;4.666;2024-02-21T05:51:21;13.63;;;6.37;;
38615;SDS011;24370;51.986;4.666;2024-02-21T05:53:47;16.33;;;5.57;;
38615;SDS011;24370;51.986;4.666;2024-02-21T05:56:13;13.80;;;5.93;;
38615;SDS011;24370;51.986;4.666;2024-02-21T05:58:39;11.80;;;5.17;;
38615;SDS011;24370;51.986;4.666;2024-02-21T06:01:05;11.50;;;5.77;;
38615;SDS011;24370;51.986;4.666;2024-02-21T06:03:32;15.70;;;6.47;;
38615;SDS011;24370;51.986;4.666;2024-02-21T06:05:58;12.20;;;5.53;;
38615;SDS011;24370;51.986;4.666;2024-02-21T06:08:24;10.93;;;5.83;;
38615;SDS011;24370;51.986;4.666;2024-02-21T06:10:49;8.77;;;5.10;;
38615;SDS011;24370;51.986;4.666;2024-02-21T06:13:19;14.23;;;5.20;;
38615;SDS011;24370;51.986;4.666;2024-02-21T06:15:46;11.30;;;5.10;;
38615;SDS011;24370;51.986;4.666;2024-02-21T06:18:11;16.03;;;6.50;;
38615;SDS011;24370;51.986;4.666;2024-02-21T06:20:37;11.10;;;5.43;;
38615;SDS011;24370;51.986;4.666;2024-02-21T06:23:05;17.87;;;6.27;;
38615;SDS011;24370;51.986;4.666;2024-02-21T06:25:30;21.57;;;5.93;;
38615;SDS011;24370;51.986;4.666;2024-02-21T06:27:56;10.00;;;5.60;;
38615;SDS011;24370;51.986;4.666;2024-02-21T06:30:21;13.53;;;4.73;;
38615;SDS011;24370;51.986;4.666;2024-02-21T06:32:46;15.07;;;5.80;;
38615;SDS011;24370;51.986;4.666;2024-02-21T06:35:12;11.27;;;5.77;;
38615;SDS011;24370;51.986;4.666;2024-02-21T06:37:37;12.70;;;4.80;;
38615;SDS011;24370;51.986;4.666;2024-02-21T06:40:03;16.97;;;5.20;;
38615;SDS011;24370;51.986;4.666;2024-02-21T06:42:29;17.03;;;5.80;;
38615;SDS011;24370;51.986;4.666;2024-02-21T06:44:54;13.07;;;5.33;;
38615;SDS011;24370;51.986;4.666;2024-02-21T06:47:21;17.30;;;5.17;;
38615;SDS011;24370;51.986;4.666;2024-02-21T06:49:50;7.83;;;4.23;;
38615;SDS011;24370;51.986;4.666;2024-02-21T06:52:19;15.57;;;5.40;;
38615;SDS011;24370;51.986;4.666;2024-02-21T06:54:45;18.00;;;5.27;;
38615;SDS011;24370;51.986;4.666;2024-02-21T06:57:12;16.67;;;5.10;;
38615;SDS011;24370;51.986;4.666;2024-02-21T06:59:39;16.37;;;5.90;;
38615;SDS011;24370;51.986;4.666;2024-02-21T07:02:04;15.60;;;5.40;;
38615;SDS011;24370;51.986;4.666;2024-02-21T07:04:30;12.60;;;6.00;;
38615;SDS011;24370;51.986;4.666;2024-02-21T07:06:55;11.83;;;5.97;;
38615;SDS011;24370;51.986;4.666;2024-02-21T07:09:21;17.43;;;6.90;;
38615;SDS011;24370;51.986;4.666;2024-02-21T07:11:46;15.37;;;5.37;;
38615;SDS011;24370;51.986;4.666;2024-02-21T07:14:11;16.27;;;5.90;;
38615;SDS011;24370;51.986;4.666;2024-02-21T07:16:39;20.33;;;5.80;;
38615;SDS011;24370;51.986;4.666;2024-02-21T07:19:04;15.83;;;5.90;;
38615;SDS011;24370;51.986;4.666;2024-02-21T07:21:29;16.43;;;5.43;;
38615;SDS011;24370;51.986;4.666;2024-02-21T07:23:55;20.20;;;5.77;;
38615;SDS011;24370;51.986;4.666;2024-02-21T07:26:20;17.47;;;6.17;;
38615;SDS011;24370;51.986;4.666;2024-02-21T07:28:46;16.80;;;5.97;;
38615;SDS011;24370;51.986;4.666;2024-02-21T07:31:12;15.27;;;6.27;;
38615;SDS011;24370;51.986;4.666;2024-02-21T07:33:37;11.00;;;5.93;;
38615;SDS011;24370;51.986;4.666;2024-02-21T07:36:06;20.83;;;6.07;;
38615;SDS011;24370;51.986;4.666;2024-02-21T07:38:32;14.77;;;7.03;;
38615;SDS011;24370;51.986;4.666;2024-02-21T07:40:57;18.27;;;5.87;;
38615;SDS011;24370;51.986;4.666;2024-02-21T07:43:23;14.93;;;6.60;;
38615;SDS011;24370;51.986;4.666;2024-02-21T07:45:48;16.97;;;6.53;;
38615;SDS011;24370;51.986;4.666;2024-02-21T07:48:14;19.70;;;7.90;;
38615;SDS011;24370;51.986;4.666;2024-02-21T07:50:39;18.77;;;7.53;;
38615;SDS011;24370;51.986;4.666;2024-02-21T07:53:05;28.20;;;8.27;;
38615;SDS011;24370;51.986;4.666;2024-02-21T07:55:30;16.77;;;7.17;;
38615;SDS011;24370;51.986;4.666;2024-02-21T07:57:55;21.60;;;8.90;;
38615;SDS011;24370;51.986;4.666;2024-02-21T08:00:21;14.40;;;6.33;;
38615;SDS011;24370;51.986;4.666;2024-02-21T08:02:47;14.47;;;6.87;;
38615;SDS011;24370;51.986;4.666;2024-02-21T08:05:15;17.73;;;7.80;;
38615;SDS011;24370;51.986;4.666;2024-02-21T08:07:41;19.93;;;6.70;;
38615;SDS011;24370;51.986;4.666;2024-02-21T08:10:06;16.20;;;6.40;;
38615;SDS011;24370;51.986;4.666;2024-02-21T08:12:33;16.57;;;6.80;;
38615;SDS011;24370;51.986;4.666;2024-02-21T08:14:58;14.47;;;6.60;;
38615;SDS011;24370;51.986;4.666;2024-02-21T08:17:24;16.80;;;7.37;;
38615;SDS011;24370;51.986;4.666;2024-02-21T08:19:49;22.53;;;7.07;;
38615;SDS011;24370;51.986;4.666;2024-02-21T08:22:14;14.17;;;6.40;;
38615;SDS011;24370;51.986;4.666;2024-02-21T08:24:40;13.33;;;6.20;;
38615;SDS011;24370;51.986;4.666;2024-02-21T08:27:05;21.27;;;7.00;;
38615;SDS011;24370;51.986;4.666;2024-02-21T08:29:31;14.63;;;6.17;;
38615;SDS011;24370;51.986;4.666;2024-02-21T08:31:56;14.47;;;5.83;;
38615;SDS011;24370;51.986;4.666;2024-02-21T08:34:21;16.30;;;7.03;;
38615;SDS011;24370;51.986;4.666;2024-02-21T08:36:47;13.40;;;6.57;;
38615;SDS011;24370;51.986;4.666;2024-02-21T08:39:12;21.03;;;6.80;;
38615;SDS011;24370;51.986;4.666;2024-02-21T08:41:41;15.23;;;6.23;;
38615;SDS011;24370;51.986;4.666;2024-02-21T08:44:07;13.60;;;6.00;;
38615;SDS011;24370;51.986;4.666;2024-02-21T08:46:32;18.33;;;7.33;;
38615;SDS011;24370;51.986;4.666;2024-02-21T08:48:58;13.97;;;6.67;;
38615;SDS011;24370;51.986;4.666;2024-02-21T08:51:23;14.77;;;6.70;;
38615;SDS011;24370;51.986;4.666;2024-02-21T08:53:49;15.63;;;6.90;;
38615;SDS011;24370;51.986;4.666;2024-02-21T08:56:15;18.77;;;7.20;;
38615;SDS011;24370;51.986;4.666;2024-02-21T08:58:40;21.57;;;9.03;;
38615;SDS011;24370;51.986;4.666;2024-02-21T09:01:06;14.20;;;7.03;;
38615;SDS011;24370;51.986;4.666;2024-02-21T09:03:35;17.13;;;7.73;;
38615;SDS011;24370;51.986;4.666;2024-02-21T09:06:04;11.77;;;6.13;;
38615;SDS011;24370;51.986;4.666;2024-02-21T09:08:31;17.70;;;7.20;;
38615;SDS011;24370;51.986;4.666;2024-02-21T09:10:56;14.40;;;7.07;;
38615;SDS011;24370;51.986;4.666;2024-02-21T09:13:22;12.20;;;6.97;;
38615;SDS011;24370;51.986;4.666;2024-02-21T09:15:48;11.83;;;6.67;;
38615;SDS011;24370;51.986;4.666;2024-02-21T09:18:14;15.93;;;6.97;;
38615;SDS011;24370;51.986;4.666;2024-02-21T09:20:40;15.67;;;5.93;;
38615;SDS011;24370;51.986;4.666;2024-02-21T09:23:05;14.00;;;7.03;;
38615;SDS011;24370;51.986;4.666;2024-02-21T09:25:31;16.43;;;7.50;;
38615;SDS011;24370;51.986;4.666;2024-02-21T09:27:56;16.17;;;5.97;;
38615;SDS011;24370;51.986;4.666;2024-02-21T09:30:23;10.37;;;6.27;;
38615;SDS011;24370;51.986;4.666;2024-02-21T09:32:49;14.40;;;6.37;;
38615;SDS011;24370;51.986;4.666;2024-02-21T09:35:14;14.90;;;6.73;;
38615;SDS011;24370;51.986;4.666;2024-02-21T09:37:40;14.50;;;6.37;;
38615;SDS011;24370;51.986;4.666;2024-02-21T09:40:05;14.40;;;5.73;;
38615;SDS011;24370;51.986;4.666;2024-02-21T09:42:38;10.10;;;5.73;;
38615;SDS011;24370;51.986;4.666;2024-02-21T09:45:07;11.60;;;5.63;;
38615;SDS011;24370;51.986;4.666;2024-02-21T09:47:55;14.50;;;6.87;;
38615;SDS011;24370;51.986;4.666;2024-02-21T09:50:24;12.70;;;5.43;;
38615;SDS011;24370;51.986;4.666;2024-02-21T09:52:52;10.87;;;5.43;;
38615;SDS011;24370;51.986;4.666;2024-02-21T09:55:20;11.83;;;5.13;;
38615;SDS011;24370;51.986;4.666;2024-02-21T09:57:45;13.47;;;5.17;;
38615;SDS011;24370;51.986;4.666;2024-02-21T10:00:11;11.00;;;4.40;;
38615;SDS011;24370;51.986;4.666;2024-02-21T10:02:38;9.23;;;5.00;;
38615;SDS011;24370;51.986;4.666;2024-02-21T10:05:04;10.60;;;4.90;;
38615;SDS011;24370;51.986;4.666;2024-02-21T10:07:33;7.60;;;4.63;;
38615;SDS011;24370;51.986;4.666;2024-02-21T10:10:05;10.80;;;5.23;;
38615;SDS011;24370;51.986;4.666;2024-02-21T10:12:31;12.27;;;4.78;;
38615;SDS011;24370;51.986;4.666;2024-02-21T10:15:00;11.60;;;5.67;;
38615;SDS011;24370;51.986;4.666;2024-02-21T10:17:29;10.83;;;5.63;;
38615;SDS011;24370;51.986;4.666;2024-02-21T10:19:55;15.73;;;6.77;;
38615;SDS011;24370;51.986;4.666;2024-02-21T10:22:20;13.10;;;5.97;;
38615;SDS011;24370;51.986;4.666;2024-02-21T10:24:46;12.10;;;5.03;;
38615;SDS011;24370;51.986;4.666;2024-02-21T10:27:11;12.23;;;5.80;;
38615;SDS011;24370;51.986;4.666;2024-02-21T10:29:37;15.13;;;5.43;;
38615;SDS011;24370;51.986;4.666;2024-02-21T10:32:09;8.17;;;5.23;;
38615;SDS011;24370;51.986;4.666;2024-02-21T10:34:36;11.93;;;5.57;;
38615;SDS011;24370;51.986;4.666;2024-02-21T10:37:03;10.87;;;6.53;;
38615;SDS011;24370;51.986;4.666;2024-02-21T10:39:32;11.50;;;6.33;;
38615;SDS011;24370;51.986;4.666;2024-02-21T10:42:02;9.23;;;5.43;;
38615;SDS011;24370;51.986;4.666;2024-02-21T10:44:40;10.82;;;6.07;;
38615;SDS011;24370;51.986;4.666;2024-02-21T10:47:09;10.73;;;5.60;;
38615;SDS011;24370;51.986;4.666;2024-02-21T10:49:37;9.80;;;5.60;;
38615;SDS011;24370;51.986;4.666;2024-02-21T10:52:28;8.73;;;5.77;;
38615;SDS011;24370;51.986;4.666;2024-02-21T10:55:16;10.52;;;5.90;;
38615;SDS011;24370;51.986;4.666;2024-02-21T10:57:49;10.20;;;5.87;;
38615;SDS011;24370;51.986;4.666;2024-02-21T11:00:15;9.33;;;4.77;;
38615;SDS011;24370;51.986;4.666;2024-02-21T11:02:42;9.40;;;5.23;;
38615;SDS011;24370;51.986;4.666;2024-02-21T11:05:09;12.90;;;5.60;;
38615;SDS011;24370;51.986;4.666;2024-02-21T11:07:35;10.43;;;5.40;;
38615;SDS011;24370;51.986;4.666;2024-02-21T11:10:02;7.20;;;4.33;;
38615;SDS011;24370;51.986;4.666;2024-02-21T11:12:32;12.53;;;5.07;;
38615;SDS011;24370;51.986;4.666;2024-02-21T11:15:07;11.43;;;5.17;;
38615;SDS011;24370;51.986;4.666;2024-02-21T11:17:32;9.90;;;4.97;;
38615;SDS011;24370;51.986;4.666;2024-02-21T11:19:58;8.60;;;4.93;;
38615;SDS011;24370;51.986;4.666;2024-02-21T11:22:26;9.73;;;4.80;;
38615;SDS011;24370;51.986;4.666;2024-02-21T11:25:05;12.67;;;5.30;;
38615;SDS011;24370;51.986;4.666;2024-02-21T11:27:33;6.13;;;4.43;;
38615;SDS011;24370;51.986;4.666;2024-02-21T11:29:59;11.10;;;5.57;;
38615;SDS011;24370;51.986;4.666;2024-02-21T11:32:25;10.60;;;5.53;;
38615;SDS011;24370;51.986;4.666;2024-02-21T11:34:58;7.73;;;5.30;;
38615;SDS011;24370;51.986;4.666;2024-02-21T11:37:27;10.40;;;5.47;;
38615;SDS011;24370;51.986;4.666;2024-02-21T11:39:57;8.70;;;5.03;;
38615;SDS011;24370;51.986;4.666;2024-02-21T11:42:22;11.30;;;5.27;;
38615;SDS011;24370;51.986;4.666;2024-02-21T11:44:50;10.37;;;5.60;;
38615;SDS011;24370;51.986;4.666;2024-02-21T11:47:15;9.07;;;5.20;;
38615;SDS011;24370;51.986;4.666;2024-02-21T11:49:45;10.50;;;5.83;;
38615;SDS011;24370;51.986;4.666;2024-02-21T11:52:12;10.97;;;6.03;;
38615;SDS011;24370;51.986;4.666;2024-02-21T11:54:40;10.13;;;4.90;;
38615;SDS011;24370;51.986;4.666;2024-02-21T11:57:06;7.00;;;4.50;;
38615;SDS011;24370;51.986;4.666;2024-02-21T11:59:31;10.63;;;4.70;;
38615;SDS011;24370;51.986;4.666;2024-02-21T12:01:58;10.17;;;4.23;;
38615;SDS011;24370;51.986;4.666;2024-02-21T12:04:24;5.57;;;3.97;;
38615;SDS011;24370;51.986;4.666;2024-02-21T12:06:49;7.60;;;3.83;;
38615;SDS011;24370;51.986;4.666;2024-02-21T12:09:17;6.50;;;4.40;;
38615;SDS011;24370;51.986;4.666;2024-02-21T12:11:43;10.20;;;4.47;;
38615;SDS011;24370;51.986;4.666;2024-02-21T12:14:09;9.27;;;3.93;;
38615;SDS011;24370;51.986;4.666;2024-02-21T12:16:35;6.90;;;3.73;;
38615;SDS011;24370;51.986;4.666;2024-02-21T12:19:04;10.03;;;4.27;;
38615;SDS011;24370;51.986;4.666;2024-02-21T12:21:30;10.00;;;4.70;;
38615;SDS011;24370;51.986;4.666;2024-02-21T12:24:00;7.87;;;4.13;;
38615;SDS011;24370;51.986;4.666;2024-02-21T12:26:36;10.93;;;4.40;;
38615;SDS011;24370;51.986;4.666;2024-02-21T12:29:02;14.60;;;4.00;;
38615;SDS011;24370;51.986;4.666;2024-02-21T12:31:27;8.40;;;4.13;;
38615;SDS011;24370;51.986;4.666;2024-02-21T12:33:53;6.97;;;3.53;;
38615;SDS011;24370;51.986;4.666;2024-02-21T12:36:18;7.73;;;3.80;;
38615;SDS011;24370;51.986;4.666;2024-02-21T12:38:44;6.53;;;4.10;;
38615;SDS011;24370;51.986;4.666;2024-02-21T12:41:11;5.37;;;3.73;;
38615;SDS011;24370;51.986;4.666;2024-02-21T12:43:36;9.50;;;4.13;;
38615;SDS011;24370;51.986;4.666;2024-02-21T12:46:03;6.20;;;3.40;;
38615;SDS011;24370;51.986;4.666;2024-02-21T12:48:28;5.67;;;3.17;;
38615;SDS011;24370;51.986;4.666;2024-02-21T12:50:54;7.07;;;3.57;;
38615;SDS011;24370;51.986;4.666;2024-02-21T12:53:20;9.00;;;3.30;;
38615;SDS011;24370;51.986;4.666;2024-02-21T12:55:49;6.93;;;3.27;;
38615;SDS011;24370;51.986;4.666;2024-02-21T12:58:15;9.40;;;4.00;;
38615;SDS011;24370;51.986;4.666;2024-02-21T13:00:40;6.77;;;3.17;;
38615;SDS011;24370;51.986;4.666;2024-02-21T13:03:06;6.93;;;2.93;;
38615;SDS011;24370;51.986;4.666;2024-02-21T13:05:32;6.97;;;2.93;;
38615;SDS011;24370;51.986;4.666;2024-02-21T13:08:00;4.60;;;3.13;;
38615;SDS011;24370;51.986;4.666;2024-02-21T13:10:26;8.40;;;3.00;;
38615;SDS011;24370;51.986;4.666;2024-02-21T13:12:51;3.70;;;2.73;;
38615;SDS011;24370;51.986;4.666;2024-02-21T13:15:17;6.03;;;3.13;;
38615;SDS011;24370;51.986;4.666;2024-02-21T13:17:45;7.00;;;3.10;;
38615;SDS011;24370;51.986;4.666;2024-02-21T13:20:11;7.53;;;3.53;;
38615;SDS011;24370;51.986;4.666;2024-02-21T13:22:37;7.00;;;3.60;;
38615;SDS011;24370;51.986;4.666;2024-02-21T13:25:03;4.00;;;2.50;;
38615;SDS011;24370;51.986;4.666;2024-02-21T13:27:30;6.23;;;3.67;;
38615;SDS011;24370;51.986;4.666;2024-02-21T13:29:55;8.90;;;3.07;;
38615;SDS011;24370;51.986;4.666;2024-02-21T13:32:20;5.50;;;3.23;;
38615;SDS011;24370;51.986;4.666;2024-02-21T13:34:46;4.37;;;3.20;;
38615;SDS011;24370;51.986;4.666;2024-02-21T13:37:11;5.77;;;2.80;;
38615;SDS011;24370;51.986;4.666;2024-02-21T13:39:38;4.63;;;2.67;;
38615;SDS011;24370;51.986;4.666;2024-02-21T13:42:04;4.67;;;3.00;;
38615;SDS011;24370;51.986;4.666;2024-02-21T13:44:31;8.53;;;2.97;;
38615;SDS011;24370;51.986;4.666;2024-02-21T13:46:57;6.17;;;2.93;;
38615;SDS011;24370;51.986;4.666;2024-02-21T13:49:22;13.57;;;3.13;;
38615;SDS011;24370;51.986;4.666;2024-02-21T13:51:47;4.20;;;2.63;;
38615;SDS011;24370;51.986;4.666;2024-02-21T13:54:13;7.27;;;3.43;;
38615;SDS011;24370;51.986;4.666;2024-02-21T13:56:42;8.40;;;3.23;;
38615;SDS011;24370;51.986;4.666;2024-02-21T13:59:08;5.50;;;3.07;;
38615;SDS011;24370;51.986;4.666;2024-02-21T14:01:33;4.47;;;3.00;;
38615;SDS011;24370;51.986;4.666;2024-02-21T14:04:00;7.70;;;3.43;;
38615;SDS011;24370;51.986;4.666;2024-02-21T14:06:26;5.40;;;3.03;;
38615;SDS011;24370;51.986;4.666;2024-02-21T14:08:51;4.50;;;3.17;;
38615;SDS011;24370;51.986;4.666;2024-02-21T14:11:17;7.13;;;3.00;;
38615;SDS011;24370;51.986;4.666;2024-02-21T14:13:42;6.30;;;3.53;;
38615;SDS011;24370;51.986;4.666;2024-02-21T14:16:11;5.27;;;3.53;;
38615;SDS011;24370;51.986;4.666;2024-02-21T14:18:39;4.63;;;3.20;;
38615;SDS011;24370;51.986;4.666;2024-02-21T14:21:08;7.77;;;3.03;;
38615;SDS011;24370;51.986;4.666;2024-02-21T14:23:37;7.03;;;3.30;;
38615;SDS011;24370;51.986;4.666;2024-02-21T14:26:06;7.90;;;3.57;;
38615;SDS011;24370;51.986;4.666;2024-02-21T14:28:32;7.83;;;3.43;;
38615;SDS011;24370;51.986;4.666;2024-02-21T14:31:00;9.03;;;3.30;;
38615;SDS011;24370;51.986;4.666;2024-02-21T14:33:27;6.27;;;3.50;;
38615;SDS011;24370;51.986;4.666;2024-02-21T14:35:52;13.07;;;3.50;;